sensor_id;sensor_type;location;lat;lon;timestamp;P1;durP1;ratioP1;P2;durP2;ratioP2
49101;SDS011;34913;47.520;19.186;2023-10-09T00:02:10;1.70;;;1.00;;
49101;SDS011;34913;47.520;19.186;2023-10-09T00:04:39;1.90;;;1.00;;
49101;SDS011;34913;47.520;19.186;2023-10-09T00:07:10;1.27;;;1.00;;
49101;SDS011;34913;47.520;19.186;2023-10-09T00:09:37;1.77;;;0.90;;
49101;SDS011;34913;47.520;19.186;2023-10-09T00:12:13;1.58;;;1.00;;
49101;SDS011;34913;47.520;19.186;2023-10-09T00:14:47;3.28;;;1.10;;
49101;SDS011;34913;47.520;19.186;2023-10-09T00:17:15;2.50;;;1.27;;
49101;SDS011;34913;47.520;19.186;2023-10-09T00:19:44;1.73;;;1.20;;
49101;SDS011;34913;47.520;19.186;2023-10-09T00:22:15;3.03;;;1.40;;
49101;SDS011;34913;47.520;19.186;2023-10-09T00:24:49;1.40;;;0.82;;
49101;SDS011;34913;47.520;19.186;2023-10-09T00:27:16;2.05;;;1.08;;
49101;SDS011;34913;47.520;19.186;2023-10-09T00:29:46;1.67;;;1.00;;
49101;SDS011;34913;47.520;19.186;2023-10-09T00:32:13;1.23;;;0.90;;
49101;SDS011;34913;47.520;19.186;2023-10-09T00:34:51;1.98;;;1.00;;
49101;SDS011;34913;47.520;19.186;2023-10-09T00:37:17;1.63;;;1.10;;
49101;SDS011;34913;47.520;19.186;2023-10-09T00:39:51;2.55;;;1.20;;
49101;SDS011;34913;47.520;19.186;2023-10-09T00:42:23;1.45;;;0.95;;
49101;SDS011;34913;47.520;19.186;2023-10-09T00:44:58;1.95;;;1.13;;
49101;SDS011;34913;47.520;19.186;2023-10-09T00:47:32;1.83;;;0.98;;
49101;SDS011;34913;47.520;19.186;2023-10-09T00:50:06;3.08;;;1.08;;
49101;SDS011;34913;47.520;19.186;2023-10-09T00:52:47;1.55;;;1.13;;
49101;SDS011;34913;47.520;19.186;2023-10-09T00:55:32;1.65;;;1.02;;
49101;SDS011;34913;47.520;19.186;2023-10-09T00:58:11;2.17;;;1.30;;
49101;SDS011;34913;47.520;19.186;2023-10-09T01:00:42;2.20;;;1.10;;
49101;SDS011;34913;47.520;19.186;2023-10-09T01:03:11;1.98;;;1.00;;
49101;SDS011;34913;47.520;19.186;2023-10-09T01:08:26;3.33;;;1.42;;
49101;SDS011;34913;47.520;19.186;2023-10-09T01:11:05;2.20;;;1.10;;
49101;SDS011;34913;47.520;19.186;2023-10-09T01:13:43;2.83;;;1.20;;
49101;SDS011;34913;47.520;19.186;2023-10-09T01:16:16;1.38;;;1.00;;
49101;SDS011;34913;47.520;19.186;2023-10-09T01:18:45;4.25;;;1.20;;
49101;SDS011;34913;47.520;19.186;2023-10-09T01:21:14;6.55;;;1.40;;
49101;SDS011;34913;47.520;19.186;2023-10-09T01:23:41;2.17;;;1.10;;
49101;SDS011;34913;47.520;19.186;2023-10-09T01:26:38;3.35;;;1.40;;
49101;SDS011;34913;47.520;19.186;2023-10-09T01:29:14;2.58;;;1.10;;
49101;SDS011;34913;47.520;19.186;2023-10-09T01:31:44;1.60;;;1.10;;
49101;SDS011;34913;47.520;19.186;2023-10-09T01:34:31;3.55;;;1.30;;
49101;SDS011;34913;47.520;19.186;2023-10-09T01:37:03;1.75;;;1.20;;
49101;SDS011;34913;47.520;19.186;2023-10-09T01:39:42;2.08;;;1.40;;
49101;SDS011;34913;47.520;19.186;2023-10-09T01:42:08;1.92;;;1.17;;
49101;SDS011;34913;47.520;19.186;2023-10-09T01:44:35;2.00;;;1.17;;
49101;SDS011;34913;47.520;19.186;2023-10-09T01:47:06;2.50;;;1.10;;
49101;SDS011;34913;47.520;19.186;2023-10-09T01:49:39;1.60;;;1.13;;
49101;SDS011;34913;47.520;19.186;2023-10-09T01:52:09;2.45;;;1.20;;
49101;SDS011;34913;47.520;19.186;2023-10-09T01:54:42;1.48;;;1.00;;
49101;SDS011;34913;47.520;19.186;2023-10-09T01:57:14;1.90;;;1.08;;
49101;SDS011;34913;47.520;19.186;2023-10-09T01:59:44;4.03;;;1.42;;
49101;SDS011;34913;47.520;19.186;2023-10-09T02:02:13;4.95;;;1.50;;
49101;SDS011;34913;47.520;19.186;2023-10-09T02:05:03;2.55;;;1.45;;
49101;SDS011;34913;47.520;19.186;2023-10-09T02:07:50;4.25;;;1.45;;
49101;SDS011;34913;47.520;19.186;2023-10-09T02:10:16;3.15;;;1.60;;
49101;SDS011;34913;47.520;19.186;2023-10-09T02:12:49;4.50;;;1.63;;
49101;SDS011;34913;47.520;19.186;2023-10-09T02:15:30;4.43;;;1.38;;
49101;SDS011;34913;47.520;19.186;2023-10-09T02:18:11;3.97;;;1.60;;
49101;SDS011;34913;47.520;19.186;2023-10-09T02:23:24;3.05;;;1.60;;
49101;SDS011;34913;47.520;19.186;2023-10-09T02:25:56;4.18;;;1.77;;
49101;SDS011;34913;47.520;19.186;2023-10-09T02:28:22;4.17;;;2.00;;
49101;SDS011;34913;47.520;19.186;2023-10-09T02:30:48;5.28;;;1.65;;
49101;SDS011;34913;47.520;19.186;2023-10-09T02:33:14;3.72;;;1.50;;
49101;SDS011;34913;47.520;19.186;2023-10-09T02:35:52;4.30;;;1.80;;
49101;SDS011;34913;47.520;19.186;2023-10-09T02:38:19;7.50;;;1.80;;
49101;SDS011;34913;47.520;19.186;2023-10-09T02:40:48;5.18;;;1.75;;
49101;SDS011;34913;47.520;19.186;2023-10-09T02:43:45;4.25;;;1.80;;
49101;SDS011;34913;47.520;19.186;2023-10-09T02:46:15;7.75;;;2.50;;
49101;SDS011;34913;47.520;19.186;2023-10-09T02:48:46;3.53;;;1.90;;
49101;SDS011;34913;47.520;19.186;2023-10-09T02:51:22;3.85;;;1.70;;
49101;SDS011;34913;47.520;19.186;2023-10-09T02:53:58;5.03;;;1.73;;
49101;SDS011;34913;47.520;19.186;2023-10-09T02:56:31;3.65;;;1.50;;
49101;SDS011;34913;47.520;19.186;2023-10-09T02:59:08;3.67;;;1.83;;
49101;SDS011;34913;47.520;19.186;2023-10-09T03:01:35;3.75;;;1.60;;
49101;SDS011;34913;47.520;19.186;2023-10-09T03:04:02;2.28;;;1.27;;
49101;SDS011;34913;47.520;19.186;2023-10-09T03:06:31;2.88;;;1.40;;
49101;SDS011;34913;47.520;19.186;2023-10-09T03:08:57;3.47;;;1.50;;
49101;SDS011;34913;47.520;19.186;2023-10-09T03:11:23;2.90;;;1.55;;
49101;SDS011;34913;47.520;19.186;2023-10-09T03:13:51;2.40;;;1.30;;
49101;SDS011;34913;47.520;19.186;2023-10-09T03:16:18;4.50;;;1.65;;
49101;SDS011;34913;47.520;19.186;2023-10-09T03:18:45;3.40;;;1.70;;
49101;SDS011;34913;47.520;19.186;2023-10-09T03:21:12;3.13;;;1.50;;
49101;SDS011;34913;47.520;19.186;2023-10-09T03:23:39;2.63;;;1.58;;
49101;SDS011;34913;47.520;19.186;2023-10-09T03:26:05;3.22;;;1.70;;
49101;SDS011;34913;47.520;19.186;2023-10-09T03:28:33;2.78;;;1.30;;
49101;SDS011;34913;47.520;19.186;2023-10-09T03:30:58;3.80;;;1.63;;
49101;SDS011;34913;47.520;19.186;2023-10-09T03:33:27;2.58;;;1.58;;
49101;SDS011;34913;47.520;19.186;2023-10-09T03:35:58;2.80;;;1.45;;
49101;SDS011;34913;47.520;19.186;2023-10-09T03:38:25;3.22;;;1.30;;
49101;SDS011;34913;47.520;19.186;2023-10-09T03:40:54;2.22;;;1.60;;
49101;SDS011;34913;47.520;19.186;2023-10-09T03:43:19;3.65;;;1.67;;
49101;SDS011;34913;47.520;19.186;2023-10-09T03:45:46;2.75;;;1.52;;
49101;SDS011;34913;47.520;19.186;2023-10-09T03:48:19;3.88;;;1.50;;
49101;SDS011;34913;47.520;19.186;2023-10-09T03:50:57;2.58;;;1.55;;
49101;SDS011;34913;47.520;19.186;2023-10-09T03:53:49;6.13;;;2.03;;
49101;SDS011;34913;47.520;19.186;2023-10-09T03:56:16;4.40;;;2.20;;
49101;SDS011;34913;47.520;19.186;2023-10-09T03:58:45;4.53;;;2.80;;
49101;SDS011;34913;47.520;19.186;2023-10-09T04:01:18;4.70;;;2.47;;
49101;SDS011;34913;47.520;19.186;2023-10-09T04:03:56;5.78;;;2.53;;
49101;SDS011;34913;47.520;19.186;2023-10-09T04:06:28;4.50;;;1.92;;
49101;SDS011;34913;47.520;19.186;2023-10-09T04:09:01;4.53;;;1.80;;
49101;SDS011;34913;47.520;19.186;2023-10-09T04:11:43;3.95;;;1.50;;
49101;SDS011;34913;47.520;19.186;2023-10-09T04:14:14;3.95;;;1.80;;
49101;SDS011;34913;47.520;19.186;2023-10-09T04:16:58;2.28;;;1.35;;
49101;SDS011;34913;47.520;19.186;2023-10-09T04:19:34;2.05;;;1.33;;
49101;SDS011;34913;47.520;19.186;2023-10-09T04:22:13;2.83;;;1.38;;
49101;SDS011;34913;47.520;19.186;2023-10-09T04:24:51;2.65;;;1.30;;
49101;SDS011;34913;47.520;19.186;2023-10-09T04:27:16;2.67;;;1.60;;
49101;SDS011;34913;47.520;19.186;2023-10-09T04:29:42;2.78;;;1.40;;
49101;SDS011;34913;47.520;19.186;2023-10-09T04:32:12;3.63;;;1.67;;
49101;SDS011;34913;47.520;19.186;2023-10-09T04:34:43;2.78;;;1.38;;
49101;SDS011;34913;47.520;19.186;2023-10-09T04:37:21;3.55;;;1.60;;
49101;SDS011;34913;47.520;19.186;2023-10-09T04:40:03;5.07;;;1.60;;
49101;SDS011;34913;47.520;19.186;2023-10-09T04:42:49;3.33;;;1.23;;
49101;SDS011;34913;47.520;19.186;2023-10-09T04:45:24;4.15;;;1.73;;
49101;SDS011;34913;47.520;19.186;2023-10-09T04:48:08;6.47;;;1.70;;
49101;SDS011;34913;47.520;19.186;2023-10-09T04:50:34;4.60;;;1.45;;
49101;SDS011;34913;47.520;19.186;2023-10-09T04:53:00;3.70;;;1.80;;
49101;SDS011;34913;47.520;19.186;2023-10-09T04:55:39;5.60;;;1.60;;
49101;SDS011;34913;47.520;19.186;2023-10-09T04:58:09;5.18;;;1.55;;
49101;SDS011;34913;47.520;19.186;2023-10-09T05:00:48;3.80;;;1.50;;
49101;SDS011;34913;47.520;19.186;2023-10-09T05:03:28;4.82;;;1.77;;
49101;SDS011;34913;47.520;19.186;2023-10-09T05:05:54;3.55;;;1.60;;
49101;SDS011;34913;47.520;19.186;2023-10-09T05:08:45;3.90;;;1.58;;
49101;SDS011;34913;47.520;19.186;2023-10-09T05:11:12;3.67;;;1.80;;
49101;SDS011;34913;47.520;19.186;2023-10-09T05:14:00;6.65;;;1.70;;
49101;SDS011;34913;47.520;19.186;2023-10-09T05:16:38;3.78;;;2.00;;
49101;SDS011;34913;47.520;19.186;2023-10-09T05:19:19;3.73;;;1.53;;
49101;SDS011;34913;47.520;19.186;2023-10-09T05:22:19;3.15;;;1.60;;
49101;SDS011;34913;47.520;19.186;2023-10-09T05:25:03;4.47;;;1.58;;
49101;SDS011;34913;47.520;19.186;2023-10-09T05:27:41;3.13;;;1.40;;
49101;SDS011;34913;47.520;19.186;2023-10-09T05:30:15;4.20;;;1.70;;
49101;SDS011;34913;47.520;19.186;2023-10-09T05:32:53;3.33;;;1.40;;
49101;SDS011;34913;47.520;19.186;2023-10-09T05:35:45;5.13;;;1.50;;
49101;SDS011;34913;47.520;19.186;2023-10-09T05:38:30;4.22;;;1.50;;
49101;SDS011;34913;47.520;19.186;2023-10-09T05:40:56;4.90;;;1.67;;
49101;SDS011;34913;47.520;19.186;2023-10-09T05:43:42;2.95;;;1.45;;
49101;SDS011;34913;47.520;19.186;2023-10-09T05:46:26;5.40;;;1.40;;
49101;SDS011;34913;47.520;19.186;2023-10-09T05:49:00;4.72;;;1.27;;
49101;SDS011;34913;47.520;19.186;2023-10-09T05:51:34;3.10;;;1.40;;
49101;SDS011;34913;47.520;19.186;2023-10-09T05:54:06;3.45;;;1.40;;
49101;SDS011;34913;47.520;19.186;2023-10-09T05:56:51;3.08;;;1.42;;
49101;SDS011;34913;47.520;19.186;2023-10-09T05:59:54;5.55;;;1.60;;
49101;SDS011;34913;47.520;19.186;2023-10-09T06:02:38;3.65;;;1.35;;
49101;SDS011;34913;47.520;19.186;2023-10-09T06:05:22;2.25;;;1.40;;
49101;SDS011;34913;47.520;19.186;2023-10-09T06:08:20;2.80;;;1.40;;
49101;SDS011;34913;47.520;19.186;2023-10-09T06:11:04;2.15;;;1.40;;
49101;SDS011;34913;47.520;19.186;2023-10-09T06:13:55;4.60;;;1.48;;
49101;SDS011;34913;47.520;19.186;2023-10-09T06:19:18;2.63;;;1.35;;
49101;SDS011;34913;47.520;19.186;2023-10-09T06:21:44;6.78;;;1.35;;
49101;SDS011;34913;47.520;19.186;2023-10-09T06:24:28;4.00;;;1.35;;
49101;SDS011;34913;47.520;19.186;2023-10-09T06:27:09;2.30;;;1.30;;
49101;SDS011;34913;47.520;19.186;2023-10-09T06:29:35;3.33;;;1.30;;
49101;SDS011;34913;47.520;19.186;2023-10-09T06:32:01;3.63;;;1.40;;
49101;SDS011;34913;47.520;19.186;2023-10-09T06:34:46;2.80;;;1.52;;
49101;SDS011;34913;47.520;19.186;2023-10-09T06:37:40;2.22;;;1.40;;
49101;SDS011;34913;47.520;19.186;2023-10-09T06:40:25;4.57;;;1.42;;
49101;SDS011;34913;47.520;19.186;2023-10-09T06:43:09;2.85;;;1.20;;
49101;SDS011;34913;47.520;19.186;2023-10-09T06:45:40;3.97;;;1.58;;
49101;SDS011;34913;47.520;19.186;2023-10-09T06:48:26;8.85;;;1.48;;
49101;SDS011;34913;47.520;19.186;2023-10-09T06:51:21;5.15;;;1.35;;
49101;SDS011;34913;47.520;19.186;2023-10-09T06:53:54;2.60;;;1.30;;
49101;SDS011;34913;47.520;19.186;2023-10-09T06:56:20;2.90;;;0.95;;
49101;SDS011;34913;47.520;19.186;2023-10-09T06:58:57;3.55;;;1.13;;
49101;SDS011;34913;47.520;19.186;2023-10-09T07:01:24;4.93;;;1.35;;
49101;SDS011;34913;47.520;19.186;2023-10-09T07:03:53;3.08;;;1.25;;
49101;SDS011;34913;47.520;19.186;2023-10-09T07:06:19;5.78;;;1.20;;
49101;SDS011;34913;47.520;19.186;2023-10-09T07:09:00;2.33;;;1.00;;
49101;SDS011;34913;47.520;19.186;2023-10-09T07:11:31;2.92;;;1.25;;
49101;SDS011;34913;47.520;19.186;2023-10-09T07:14:09;2.58;;;1.20;;
49101;SDS011;34913;47.520;19.186;2023-10-09T07:16:57;4.35;;;1.27;;
49101;SDS011;34913;47.520;19.186;2023-10-09T07:19:28;2.50;;;1.10;;
49101;SDS011;34913;47.520;19.186;2023-10-09T07:22:07;2.13;;;1.10;;
49101;SDS011;34913;47.520;19.186;2023-10-09T07:24:45;3.40;;;1.05;;
49101;SDS011;34913;47.520;19.186;2023-10-09T07:27:21;4.13;;;1.25;;
49101;SDS011;34913;47.520;19.186;2023-10-09T07:30:07;5.65;;;1.33;;
49101;SDS011;34913;47.520;19.186;2023-10-09T07:32:53;2.55;;;1.10;;
49101;SDS011;34913;47.520;19.186;2023-10-09T07:35:31;2.47;;;1.30;;
49101;SDS011;34913;47.520;19.186;2023-10-09T07:38:18;4.85;;;1.40;;
49101;SDS011;34913;47.520;19.186;2023-10-09T07:40:49;4.00;;;1.15;;
49101;SDS011;34913;47.520;19.186;2023-10-09T07:43:38;2.13;;;0.90;;
49101;SDS011;34913;47.520;19.186;2023-10-09T07:46:10;5.63;;;1.60;;
49101;SDS011;34913;47.520;19.186;2023-10-09T07:48:59;3.90;;;1.30;;
49101;SDS011;34913;47.520;19.186;2023-10-09T07:51:35;3.63;;;1.23;;
49101;SDS011;34913;47.520;19.186;2023-10-09T07:54:02;3.72;;;1.05;;
49101;SDS011;34913;47.520;19.186;2023-10-09T07:56:37;3.35;;;1.20;;
49101;SDS011;34913;47.520;19.186;2023-10-09T07:59:09;2.67;;;0.90;;
49101;SDS011;34913;47.520;19.186;2023-10-09T08:01:41;3.03;;;1.20;;
49101;SDS011;34913;47.520;19.186;2023-10-09T08:04:20;4.10;;;1.20;;
49101;SDS011;34913;47.520;19.186;2023-10-09T08:07:13;3.85;;;0.95;;
49101;SDS011;34913;47.520;19.186;2023-10-09T08:09:53;1.90;;;1.00;;
49101;SDS011;34913;47.520;19.186;2023-10-09T08:12:37;2.92;;;1.17;;
49101;SDS011;34913;47.520;19.186;2023-10-09T08:15:15;2.78;;;0.90;;
49101;SDS011;34913;47.520;19.186;2023-10-09T08:17:51;2.28;;;0.98;;
49101;SDS011;34913;47.520;19.186;2023-10-09T08:20:24;4.22;;;1.10;;
49101;SDS011;34913;47.520;19.186;2023-10-09T08:23:01;5.75;;;1.20;;
49101;SDS011;34913;47.520;19.186;2023-10-09T08:25:30;2.10;;;0.90;;
49101;SDS011;34913;47.520;19.186;2023-10-09T08:28:01;2.75;;;0.90;;
49101;SDS011;34913;47.520;19.186;2023-10-09T08:30:47;2.65;;;1.27;;
49101;SDS011;34913;47.520;19.186;2023-10-09T08:33:28;2.35;;;1.20;;
49101;SDS011;34913;47.520;19.186;2023-10-09T08:36:06;8.70;;;3.47;;
49101;SDS011;34913;47.520;19.186;2023-10-09T08:38:33;3.28;;;1.13;;
49101;SDS011;34913;47.520;19.186;2023-10-09T08:41:11;1.80;;;0.90;;
49101;SDS011;34913;47.520;19.186;2023-10-09T08:43:53;3.10;;;1.20;;
49101;SDS011;34913;47.520;19.186;2023-10-09T08:46:24;1.70;;;0.90;;
49101;SDS011;34913;47.520;19.186;2023-10-09T08:48:57;12.27;;;1.30;;
49101;SDS011;34913;47.520;19.186;2023-10-09T08:51:27;2.47;;;1.10;;
49101;SDS011;34913;47.520;19.186;2023-10-09T08:53:54;2.35;;;1.10;;
49101;SDS011;34913;47.520;19.186;2023-10-09T08:56:20;2.13;;;1.23;;
49101;SDS011;34913;47.520;19.186;2023-10-09T08:58:53;2.53;;;0.95;;
49101;SDS011;34913;47.520;19.186;2023-10-09T09:01:20;4.18;;;1.05;;
49101;SDS011;34913;47.520;19.186;2023-10-09T09:03:48;2.13;;;1.00;;
49101;SDS011;34913;47.520;19.186;2023-10-09T09:06:15;5.18;;;1.10;;
49101;SDS011;34913;47.520;19.186;2023-10-09T09:08:44;2.83;;;1.00;;
49101;SDS011;34913;47.520;19.186;2023-10-09T09:11:11;4.82;;;1.00;;
49101;SDS011;34913;47.520;19.186;2023-10-09T09:13:48;3.50;;;1.17;;
49101;SDS011;34913;47.520;19.186;2023-10-09T09:16:46;2.35;;;1.10;;
49101;SDS011;34913;47.520;19.186;2023-10-09T09:19:14;2.13;;;0.98;;
49101;SDS011;34913;47.520;19.186;2023-10-09T09:21:50;2.90;;;0.90;;
49101;SDS011;34913;47.520;19.186;2023-10-09T09:24:24;2.15;;;1.08;;
49101;SDS011;34913;47.520;19.186;2023-10-09T09:26:51;2.45;;;1.00;;
49101;SDS011;34913;47.520;19.186;2023-10-09T09:29:24;2.13;;;1.05;;
49101;SDS011;34913;47.520;19.186;2023-10-09T09:32:09;5.40;;;1.00;;
49101;SDS011;34913;47.520;19.186;2023-10-09T09:37:12;2.38;;;1.05;;
49101;SDS011;34913;47.520;19.186;2023-10-09T09:39:44;4.45;;;1.02;;
49101;SDS011;34913;47.520;19.186;2023-10-09T09:42:16;7.55;;;1.20;;
49101;SDS011;34913;47.520;19.186;2023-10-09T09:44:43;2.58;;;0.98;;
49101;SDS011;34913;47.520;19.186;2023-10-09T09:47:14;3.97;;;1.00;;
49101;SDS011;34913;47.520;19.186;2023-10-09T09:49:52;3.60;;;0.80;;
49101;SDS011;34913;47.520;19.186;2023-10-09T09:52:25;3.08;;;1.27;;
49101;SDS011;34913;47.520;19.186;2023-10-09T09:54:54;2.55;;;1.10;;
49101;SDS011;34913;47.520;19.186;2023-10-09T09:57:20;3.55;;;1.23;;
49101;SDS011;34913;47.520;19.186;2023-10-09T10:02:38;3.63;;;1.17;;
49101;SDS011;34913;47.520;19.186;2023-10-09T10:05:05;3.08;;;1.42;;
49101;SDS011;34913;47.520;19.186;2023-10-09T10:07:36;3.20;;;1.40;;
49101;SDS011;34913;47.520;19.186;2023-10-09T10:13:04;2.75;;;1.15;;
49101;SDS011;34913;47.520;19.186;2023-10-09T10:18:31;5.05;;;1.20;;
49101;SDS011;34913;47.520;19.186;2023-10-09T10:21:10;2.00;;;1.20;;
49101;SDS011;34913;47.520;19.186;2023-10-09T10:23:41;2.83;;;1.40;;
49101;SDS011;34913;47.520;19.186;2023-10-09T10:26:16;3.28;;;1.20;;
49101;SDS011;34913;47.520;19.186;2023-10-09T10:28:56;5.40;;;2.33;;
49101;SDS011;34913;47.520;19.186;2023-10-09T10:34:52;2.58;;;1.30;;
49101;SDS011;34913;47.520;19.186;2023-10-09T10:37:21;2.38;;;1.10;;
49101;SDS011;34913;47.520;19.186;2023-10-09T10:40:03;1.38;;;1.00;;
49101;SDS011;34913;47.520;19.186;2023-10-09T10:42:48;2.53;;;1.15;;
49101;SDS011;34913;47.520;19.186;2023-10-09T10:45:34;2.67;;;1.10;;
49101;SDS011;34913;47.520;19.186;2023-10-09T10:48:01;7.32;;;1.20;;
49101;SDS011;34913;47.520;19.186;2023-10-09T10:53:13;5.03;;;1.02;;
49101;SDS011;34913;47.520;19.186;2023-10-09T10:55:54;2.22;;;1.00;;
49101;SDS011;34913;47.520;19.186;2023-10-09T10:58:21;2.60;;;0.90;;
49101;SDS011;34913;47.520;19.186;2023-10-09T11:01:00;2.08;;;1.08;;
49101;SDS011;34913;47.520;19.186;2023-10-09T11:03:36;1.77;;;0.90;;
49101;SDS011;34913;47.520;19.186;2023-10-09T11:06:24;4.60;;;1.13;;
49101;SDS011;34913;47.520;19.186;2023-10-09T11:09:09;1.63;;;0.82;;
49101;SDS011;34913;47.520;19.186;2023-10-09T11:11:46;2.08;;;1.13;;
49101;SDS011;34913;47.520;19.186;2023-10-09T11:14:13;2.25;;;1.05;;
49101;SDS011;34913;47.520;19.186;2023-10-09T11:16:51;2.10;;;1.10;;
49101;SDS011;34913;47.520;19.186;2023-10-09T11:19:22;2.88;;;1.05;;
49101;SDS011;34913;47.520;19.186;2023-10-09T11:21:55;1.35;;;1.05;;
49101;SDS011;34913;47.520;19.186;2023-10-09T11:24:39;2.30;;;1.10;;
49101;SDS011;34913;47.520;19.186;2023-10-09T11:27:08;4.28;;;1.27;;
49101;SDS011;34913;47.520;19.186;2023-10-09T11:29:47;4.88;;;1.10;;
49101;SDS011;34913;47.520;19.186;2023-10-09T11:32:17;6.70;;;1.40;;
49101;SDS011;34913;47.520;19.186;2023-10-09T11:34:47;1.67;;;0.90;;
49101;SDS011;34913;47.520;19.186;2023-10-09T11:37:17;2.78;;;1.00;;
49101;SDS011;34913;47.520;19.186;2023-10-09T11:39:55;3.97;;;1.20;;
49101;SDS011;34913;47.520;19.186;2023-10-09T11:42:22;3.60;;;1.10;;
49101;SDS011;34913;47.520;19.186;2023-10-09T11:45:21;4.05;;;1.20;;
49101;SDS011;34913;47.520;19.186;2023-10-09T11:47:50;2.65;;;1.10;;
49101;SDS011;34913;47.520;19.186;2023-10-09T11:50:39;4.95;;;1.10;;
49101;SDS011;34913;47.520;19.186;2023-10-09T11:53:23;2.42;;;1.30;;
49101;SDS011;34913;47.520;19.186;2023-10-09T11:55:49;3.97;;;1.10;;
49101;SDS011;34913;47.520;19.186;2023-10-09T11:58:16;1.77;;;0.88;;
49101;SDS011;34913;47.520;19.186;2023-10-09T12:00:57;4.10;;;1.38;;
49101;SDS011;34913;47.520;19.186;2023-10-09T12:03:30;3.05;;;1.17;;
49101;SDS011;34913;47.520;19.186;2023-10-09T12:05:57;3.97;;;1.48;;
49101;SDS011;34913;47.520;19.186;2023-10-09T12:08:29;5.57;;;1.30;;
49101;SDS011;34913;47.520;19.186;2023-10-09T12:10:55;4.32;;;1.20;;
49101;SDS011;34913;47.520;19.186;2023-10-09T12:13:24;3.25;;;1.30;;
49101;SDS011;34913;47.520;19.186;2023-10-09T12:15:50;3.20;;;1.15;;
49101;SDS011;34913;47.520;19.186;2023-10-09T12:18:20;3.97;;;1.23;;
49101;SDS011;34913;47.520;19.186;2023-10-09T12:20:47;4.93;;;1.48;;
49101;SDS011;34913;47.520;19.186;2023-10-09T12:23:27;2.92;;;1.27;;
49101;SDS011;34913;47.520;19.186;2023-10-09T12:25:53;6.43;;;1.40;;
49101;SDS011;34913;47.520;19.186;2023-10-09T12:28:21;3.83;;;1.20;;
49101;SDS011;34913;47.520;19.186;2023-10-09T12:30:48;8.15;;;1.65;;
49101;SDS011;34913;47.520;19.186;2023-10-09T12:33:17;4.68;;;1.38;;
49101;SDS011;34913;47.520;19.186;2023-10-09T12:35:44;4.88;;;1.40;;
49101;SDS011;34913;47.520;19.186;2023-10-09T12:38:13;6.15;;;1.60;;
49101;SDS011;34913;47.520;19.186;2023-10-09T12:40:44;3.90;;;1.40;;
49101;SDS011;34913;47.520;19.186;2023-10-09T12:43:16;4.38;;;1.35;;
49101;SDS011;34913;47.520;19.186;2023-10-09T12:45:44;2.47;;;1.20;;
49101;SDS011;34913;47.520;19.186;2023-10-09T12:48:10;3.97;;;1.15;;
49101;SDS011;34913;47.520;19.186;2023-10-09T12:50:37;2.17;;;1.33;;
49101;SDS011;34913;47.520;19.186;2023-10-09T12:55:38;2.80;;;1.38;;
49101;SDS011;34913;47.520;19.186;2023-10-09T13:00:37;4.53;;;1.55;;
49101;SDS011;34913;47.520;19.186;2023-10-09T13:03:07;3.30;;;1.35;;
49101;SDS011;34913;47.520;19.186;2023-10-09T13:05:51;6.00;;;1.50;;
49101;SDS011;34913;47.520;19.186;2023-10-09T13:08:26;8.63;;;1.60;;
49101;SDS011;34913;47.520;19.186;2023-10-09T13:10:57;5.18;;;1.50;;
49101;SDS011;34913;47.520;19.186;2023-10-09T13:13:29;3.45;;;1.52;;
49101;SDS011;34913;47.520;19.186;2023-10-09T13:16:17;2.30;;;1.23;;
49101;SDS011;34913;47.520;19.186;2023-10-09T13:18:49;3.67;;;1.45;;
49101;SDS011;34913;47.520;19.186;2023-10-09T13:21:19;4.82;;;1.40;;
49101;SDS011;34913;47.520;19.186;2023-10-09T13:23:48;3.17;;;1.42;;
49101;SDS011;34913;47.520;19.186;2023-10-09T13:26:16;7.97;;;1.50;;
49101;SDS011;34913;47.520;19.186;2023-10-09T13:28:55;4.47;;;1.50;;
49101;SDS011;34913;47.520;19.186;2023-10-09T13:31:22;5.22;;;1.80;;
49101;SDS011;34913;47.520;19.186;2023-10-09T13:33:51;2.75;;;1.60;;
49101;SDS011;34913;47.520;19.186;2023-10-09T13:36:20;3.40;;;1.48;;
49101;SDS011;34913;47.520;19.186;2023-10-09T13:41:20;3.90;;;1.50;;
49101;SDS011;34913;47.520;19.186;2023-10-09T13:43:46;3.90;;;1.77;;
49101;SDS011;34913;47.520;19.186;2023-10-09T13:46:12;4.50;;;1.60;;
49101;SDS011;34913;47.520;19.186;2023-10-09T13:48:41;7.03;;;1.52;;
49101;SDS011;34913;47.520;19.186;2023-10-09T13:51:08;4.43;;;1.63;;
49101;SDS011;34913;47.520;19.186;2023-10-09T13:53:43;3.45;;;1.60;;
49101;SDS011;34913;47.520;19.186;2023-10-09T13:56:16;4.68;;;1.25;;
49101;SDS011;34913;47.520;19.186;2023-10-09T13:58:49;4.40;;;1.90;;
49101;SDS011;34913;47.520;19.186;2023-10-09T14:01:16;3.85;;;1.80;;
49101;SDS011;34913;47.520;19.186;2023-10-09T14:03:55;3.28;;;1.58;;
49101;SDS011;34913;47.520;19.186;2023-10-09T14:06:22;4.78;;;2.00;;
49101;SDS011;34913;47.520;19.186;2023-10-09T14:09:02;3.67;;;1.70;;
49101;SDS011;34913;47.520;19.186;2023-10-09T14:11:30;3.10;;;1.70;;
49101;SDS011;34913;47.520;19.186;2023-10-09T14:13:56;5.18;;;1.92;;
49101;SDS011;34913;47.520;19.186;2023-10-09T14:16:25;4.65;;;1.90;;
49101;SDS011;34913;47.520;19.186;2023-10-09T14:18:55;5.22;;;2.10;;
49101;SDS011;34913;47.520;19.186;2023-10-09T14:21:32;6.60;;;1.90;;
49101;SDS011;34913;47.520;19.186;2023-10-09T14:24:03;4.35;;;1.98;;
49101;SDS011;34913;47.520;19.186;2023-10-09T14:26:29;4.63;;;2.10;;
49101;SDS011;34913;47.520;19.186;2023-10-09T14:28:55;4.57;;;1.60;;
49101;SDS011;34913;47.520;19.186;2023-10-09T14:31:24;5.30;;;1.75;;
49101;SDS011;34913;47.520;19.186;2023-10-09T14:33:54;3.03;;;1.65;;
49101;SDS011;34913;47.520;19.186;2023-10-09T14:36:20;4.85;;;1.90;;
49101;SDS011;34913;47.520;19.186;2023-10-09T14:38:47;11.00;;;2.10;;
49101;SDS011;34913;47.520;19.186;2023-10-09T14:41:21;5.53;;;2.10;;
49101;SDS011;34913;47.520;19.186;2023-10-09T14:43:49;7.50;;;2.20;;
49101;SDS011;34913;47.520;19.186;2023-10-09T14:46:16;4.18;;;1.85;;
49101;SDS011;34913;47.520;19.186;2023-10-09T14:48:45;5.32;;;2.30;;
49101;SDS011;34913;47.520;19.186;2023-10-09T14:51:11;4.63;;;2.25;;
49101;SDS011;34913;47.520;19.186;2023-10-09T14:53:38;8.93;;;2.28;;
49101;SDS011;34913;47.520;19.186;2023-10-09T14:56:05;6.53;;;2.10;;
49101;SDS011;34913;47.520;19.186;2023-10-09T14:58:34;3.28;;;1.98;;
49101;SDS011;34913;47.520;19.186;2023-10-09T15:01:09;8.05;;;2.30;;
49101;SDS011;34913;47.520;19.186;2023-10-09T15:03:40;5.32;;;2.15;;
49101;SDS011;34913;47.520;19.186;2023-10-09T15:06:07;6.20;;;2.42;;
49101;SDS011;34913;47.520;19.186;2023-10-09T15:08:35;6.57;;;2.33;;
49101;SDS011;34913;47.520;19.186;2023-10-09T15:11:01;6.47;;;2.72;;
49101;SDS011;34913;47.520;19.186;2023-10-09T15:13:27;5.53;;;2.50;;
49101;SDS011;34913;47.520;19.186;2023-10-09T15:15:55;8.18;;;2.53;;
49101;SDS011;34913;47.520;19.186;2023-10-09T15:18:21;3.85;;;2.40;;
49101;SDS011;34913;47.520;19.186;2023-10-09T15:20:48;4.20;;;2.70;;
49101;SDS011;34913;47.520;19.186;2023-10-09T15:23:14;6.93;;;2.50;;
49101;SDS011;34913;47.520;19.186;2023-10-09T15:25:39;8.13;;;3.25;;
49101;SDS011;34913;47.520;19.186;2023-10-09T15:28:07;5.97;;;2.38;;
49101;SDS011;34913;47.520;19.186;2023-10-09T15:30:34;8.32;;;4.15;;
49101;SDS011;34913;47.520;19.186;2023-10-09T15:33:04;10.15;;;4.07;;
49101;SDS011;34913;47.520;19.186;2023-10-09T15:35:30;8.52;;;5.40;;
49101;SDS011;34913;47.520;19.186;2023-10-09T15:37:58;17.98;;;7.85;;
49101;SDS011;34913;47.520;19.186;2023-10-09T15:40:28;12.25;;;6.05;;
49101;SDS011;34913;47.520;19.186;2023-10-09T15:43:00;7.72;;;4.55;;
49101;SDS011;34913;47.520;19.186;2023-10-09T15:45:26;7.38;;;3.97;;